createdAt,value
2018-04-19T00:00:12.103Z,11.83
2018-04-19T00:02:41.210Z,11.77
2018-04-19T00:05:09.934Z,11.65
2018-04-19T00:07:39.057Z,11.57
2018-04-19T00:10:07.393Z,11.59
2018-04-19T00:12:35.746Z,11.60
2018-04-19T00:15:04.485Z,11.59
2018-04-19T00:17:32.865Z,11.57
2018-04-19T00:20:01.204Z,11.44
2018-04-19T00:22:29.547Z,11.37
2018-04-19T00:24:57.910Z,11.26
2018-04-19T00:27:26.243Z,11.16
2018-04-19T00:29:54.598Z,11.14
2018-04-19T00:32:22.941Z,11.21
2018-04-19T00:34:51.925Z,11.19
2018-04-19T00:37:21.035Z,11.12
2018-04-19T00:39:50.139Z,11.11
2018-04-19T00:42:18.513Z,11.08
2018-04-19T00:44:46.905Z,11.01
2018-04-19T00:47:15.655Z,10.95
2018-04-19T00:49:43.998Z,10.86
2018-04-19T00:52:13.133Z,10.81
2018-04-19T00:54:41.496Z,10.76
2018-04-19T00:57:10.216Z,10.77
2018-04-19T00:59:39.356Z,10.78
2018-04-19T01:02:08.121Z,10.77
2018-04-19T01:04:36.509Z,10.76
2018-04-19T01:07:04.836Z,10.73
2018-04-19T01:09:33.168Z,10.66
2018-04-19T01:12:01.534Z,10.60
2018-04-19T01:14:30.618Z,10.56
2018-04-19T01:16:59.741Z,10.52
2018-04-19T01:19:28.056Z,10.50
2018-04-19T01:21:56.378Z,10.48
2018-04-19T01:24:25.132Z,10.47
2018-04-19T01:26:54.225Z,10.42
2018-04-19T01:29:22.582Z,10.36
2018-04-19T01:31:51.662Z,10.31
2018-04-19T01:34:20.411Z,10.27
2018-04-19T01:36:49.167Z,10.24
2018-04-19T01:39:17.553Z,10.18
2018-04-19T01:41:45.902Z,10.18
2018-04-19T01:44:14.633Z,10.19
2018-04-19T01:46:43.752Z,10.23
2018-04-19T01:49:12.113Z,10.19
2018-04-19T01:51:40.445Z,10.14
2018-04-19T01:54:09.651Z,10.11
2018-04-19T01:56:38.767Z,10.12
2018-04-19T01:59:07.540Z,10.10
2018-04-19T02:01:35.897Z,10.15
2018-04-19T02:04:05.025Z,10.10
2018-04-19T02:06:34.174Z,10.07
2018-04-19T02:09:02.497Z,10.03
2018-04-19T02:11:31.620Z,10.00
2018-04-19T02:13:59.930Z,9.99
2018-04-19T02:16:29.065Z,9.98
2018-04-19T02:18:57.389Z,9.94
2018-04-19T02:21:25.727Z,9.95
2018-04-19T02:23:54.056Z,9.94
2018-04-19T02:26:23.168Z,9.91
2018-04-19T02:28:52.285Z,9.88
2018-04-19T02:31:21.424Z,9.83
2018-04-19T02:33:50.553Z,9.80
2018-04-19T02:36:19.671Z,9.79
2018-04-19T02:38:48.038Z,9.74
2018-04-19T02:41:16.802Z,9.73
2018-04-19T02:43:45.542Z,9.76
2018-04-19T02:46:15.182Z,9.78
2018-04-19T02:48:44.499Z,9.74
2018-04-19T02:51:13.228Z,9.72
2018-04-19T02:53:42.413Z,9.71
2018-04-19T02:56:10.784Z,9.74
2018-04-19T02:58:39.801Z,9.72
2018-04-19T03:01:09.760Z,9.65
2018-04-19T03:03:39.236Z,9.63
2018-04-19T03:06:08.344Z,9.57
2018-04-19T03:08:36.708Z,9.61
2018-04-19T03:11:05.134Z,9.59
2018-04-19T03:13:34.311Z,9.59
2018-04-19T03:16:03.508Z,9.50
2018-04-19T03:18:32.008Z,9.44
2018-04-19T03:21:00.824Z,9.37
2018-04-19T03:23:29.604Z,9.37
2018-04-19T03:25:58.367Z,9.34
2018-04-19T03:28:27.606Z,9.30
2018-04-19T03:30:55.922Z,9.33
2018-04-19T03:33:25.714Z,9.27
2018-04-19T03:35:54.074Z,9.19
2018-04-19T03:38:22.483Z,9.18
2018-04-19T03:40:52.217Z,9.22
2018-04-19T03:43:21.042Z,9.13
2018-04-19T03:45:49.485Z,9.07
2018-04-19T03:48:18.716Z,9.04
2018-04-19T03:50:47.162Z,9.05
2018-04-19T03:53:17.058Z,9.11
2018-04-19T03:55:46.178Z,9.17
2018-04-19T03:58:15.242Z,9.19
2018-04-19T04:00:43.604Z,9.14
2018-04-19T04:03:11.918Z,9.11
2018-04-19T04:05:40.272Z,9.05
2018-04-19T04:08:10.139Z,9.02
2018-04-19T04:10:38.503Z,9.07
2018-04-19T04:13:07.651Z,9.12
2018-04-19T04:15:36.068Z,9.19
2018-04-19T04:18:23.854Z,9.24
2018-04-19T04:21:18.996Z,9.30
2018-04-19T04:23:53.988Z,9.36
2018-04-19T04:26:23.071Z,9.36
2018-04-19T04:28:51.472Z,9.35
2018-04-19T04:31:19.846Z,9.36
2018-04-19T04:33:48.572Z,9.41
2018-04-19T04:36:17.711Z,9.44
2018-04-19T04:38:46.474Z,9.52
2018-04-19T04:41:14.812Z,9.61
2018-04-19T04:43:43.564Z,9.66
2018-04-19T04:46:12.675Z,9.75
2018-04-19T04:48:41.038Z,9.84
2018-04-19T04:51:09.404Z,9.95
2018-04-19T04:53:38.142Z,10.05
2018-04-19T04:56:06.579Z,10.14
2018-04-19T04:58:34.927Z,10.26
2018-04-19T05:01:04.066Z,10.35
2018-04-19T05:03:33.149Z,10.43
2018-04-19T05:06:01.905Z,10.53
2018-04-19T05:08:31.039Z,10.66
2018-04-19T05:10:59.427Z,10.74
2018-04-19T05:13:27.802Z,10.83
2018-04-19T05:15:56.886Z,10.92
2018-04-19T05:18:25.271Z,11.02
2018-04-19T05:20:54.372Z,11.14
2018-04-19T05:23:22.687Z,11.27
2018-04-19T05:25:51.837Z,11.38
2018-04-19T05:28:20.223Z,11.47
2018-04-19T05:30:48.593Z,11.59
2018-04-19T05:33:16.942Z,11.69
2018-04-19T05:35:46.062Z,11.79
2018-04-19T05:38:14.794Z,11.87
2018-04-19T05:40:44.295Z,11.99
2018-04-19T05:43:12.642Z,12.11
2018-04-19T05:45:42.982Z,12.22
2018-04-19T05:48:12.365Z,12.33
2018-04-19T05:50:42.319Z,12.44
2018-04-19T05:53:12.034Z,12.56
2018-04-19T05:55:40.814Z,12.68
2018-04-19T05:58:09.153Z,12.81
2018-04-19T06:00:47.994Z,12.93
2018-04-19T06:03:16.312Z,13.08
2018-04-19T06:05:45.814Z,13.19
2018-04-19T06:08:14.142Z,13.33
2018-04-19T06:10:42.895Z,13.47
2018-04-19T06:13:12.011Z,13.62
2018-04-19T06:15:40.360Z,13.77
2018-04-19T06:18:10.238Z,13.95
2018-04-19T06:20:38.986Z,14.16
2018-04-19T06:23:07.330Z,14.27
2018-04-19T06:25:36.472Z,14.40
2018-04-19T06:28:04.825Z,14.47
2018-04-19T06:30:33.942Z,14.56
2018-04-19T06:33:02.323Z,14.69
2018-04-19T06:35:30.641Z,14.79
2018-04-19T06:37:59.764Z,14.95
2018-04-19T06:40:28.528Z,15.09
2018-04-19T06:42:57.645Z,15.24
2018-04-19T06:45:26.006Z,15.35
2018-04-19T06:47:55.136Z,15.46
2018-04-19T06:50:23.520Z,15.62
2018-04-19T06:52:53.394Z,15.75
2018-04-19T06:55:22.882Z,15.85
2018-04-19T06:57:51.243Z,15.94
2018-04-19T07:00:19.602Z,16.06
2018-04-19T07:02:47.986Z,16.18
2018-04-19T07:05:16.348Z,16.29
2018-04-19T07:07:44.730Z,16.37
2018-04-19T07:10:13.268Z,16.52
2018-04-19T07:12:42.376Z,16.63
2018-04-19T07:15:11.457Z,16.77
2018-04-19T07:17:40.602Z,16.88
2018-04-19T07:20:08.966Z,16.99
2018-04-19T07:22:37.342Z,17.11
2018-04-19T07:25:05.652Z,17.24
2018-04-19T07:27:33.986Z,17.37
2018-04-19T07:30:02.329Z,17.48
2018-04-19T07:32:30.687Z,17.60
2018-04-19T07:34:59.059Z,17.72
2018-04-19T07:37:27.388Z,17.79
2018-04-19T07:39:56.530Z,17.76
2018-04-19T07:42:24.841Z,17.89
2018-04-19T07:44:53.217Z,18.00
2018-04-19T07:47:22.321Z,18.15
2018-04-19T07:49:51.445Z,18.22
2018-04-19T07:52:19.797Z,18.29
2018-04-19T07:54:48.904Z,18.37
2018-04-19T07:57:17.259Z,18.39
2018-04-19T07:59:45.614Z,18.50
2018-04-19T08:02:13.979Z,18.66
2018-04-19T08:04:42.369Z,18.77
2018-04-19T08:07:10.709Z,18.80
2018-04-19T08:09:39.053Z,18.82
2018-04-19T08:12:08.039Z,18.83
2018-04-19T08:14:36.368Z,18.86
2018-04-19T08:17:04.702Z,18.91
2018-04-19T08:19:33.050Z,19.06
2018-04-19T08:22:01.373Z,19.16
2018-04-19T08:24:29.770Z,19.25
2018-04-19T08:26:58.060Z,19.31
2018-04-19T08:29:26.370Z,19.30
2018-04-19T08:31:54.745Z,19.41
2018-04-19T08:34:23.064Z,19.52
2018-04-19T08:36:51.413Z,19.62
2018-04-19T08:39:20.511Z,19.69
2018-04-19T08:41:49.669Z,19.74
2018-04-19T08:44:18.001Z,19.80
2018-04-19T08:46:47.079Z,19.90
2018-04-19T08:49:16.229Z,19.96
2018-04-19T08:51:44.637Z,20.00
2018-04-19T08:54:12.965Z,20.11
2018-04-19T08:56:41.332Z,20.13
2018-04-19T08:59:10.431Z,20.13
2018-04-19T09:01:38.764Z,20.22
2018-04-19T09:04:07.125Z,20.30
2018-04-19T09:06:35.461Z,20.22
2018-04-19T09:09:03.839Z,20.22
2018-04-19T09:11:32.149Z,20.22
2018-04-19T09:14:00.505Z,20.37
2018-04-19T09:16:28.835Z,20.27
2018-04-19T09:18:57.197Z,20.36
2018-04-19T09:21:25.533Z,20.45
2018-04-19T09:23:53.889Z,20.49
2018-04-19T09:26:23.003Z,20.49
2018-04-19T09:28:51.314Z,20.57
2018-04-19T09:31:19.663Z,20.63
2018-04-19T09:33:48.799Z,20.64
2018-04-19T09:36:17.174Z,20.62
2018-04-19T09:38:45.543Z,20.65
2018-04-19T09:41:13.871Z,20.65
2018-04-19T09:43:42.253Z,20.70
2018-04-19T09:46:10.575Z,20.75
2018-04-19T09:48:38.923Z,20.78
2018-04-19T09:51:07.257Z,20.84
2018-04-19T09:53:35.640Z,20.84
2018-04-19T09:56:03.972Z,20.98
2018-04-19T09:58:32.301Z,21.01
2018-04-19T10:01:06.862Z,21.10
2018-04-19T10:03:40.710Z,21.00
2018-04-19T10:06:09.061Z,21.02
2018-04-19T10:08:37.365Z,21.12
2018-04-19T10:11:05.731Z,21.19
2018-04-19T10:13:38.207Z,21.27
2018-04-19T10:16:07.460Z,21.27
2018-04-19T10:18:35.795Z,21.20
2018-04-19T10:21:04.189Z,21.32
2018-04-19T10:23:32.527Z,21.32
2018-04-19T10:26:00.849Z,21.38
2018-04-19T10:28:29.976Z,21.44
2018-04-19T10:30:58.300Z,21.51
2018-04-19T10:33:26.643Z,21.53
2018-04-19T10:35:54.972Z,21.55
2018-04-19T10:38:24.105Z,21.55
2018-04-19T10:40:52.422Z,21.69
2018-04-19T10:43:20.825Z,21.72
2018-04-19T10:45:49.936Z,21.59
2018-04-19T10:48:19.732Z,21.54
2018-04-19T10:50:48.843Z,21.57
2018-04-19T10:53:17.921Z,21.64
2018-04-19T10:55:46.296Z,21.67
2018-04-19T10:58:14.625Z,21.71
2018-04-19T11:00:43.713Z,21.74
2018-04-19T11:03:12.081Z,21.74
2018-04-19T11:05:40.418Z,21.81
2018-04-19T11:08:08.805Z,21.90
2018-04-19T11:10:38.240Z,21.97
2018-04-19T11:13:06.565Z,22.03
2018-04-19T11:15:34.932Z,22.00
2018-04-19T11:18:03.277Z,22.02
2018-04-19T11:20:31.615Z,22.16
2018-04-19T11:23:00.740Z,22.22
2018-04-19T11:25:29.049Z,22.23
2018-04-19T11:27:57.398Z,22.25
2018-04-19T11:30:25.741Z,22.28
2018-04-19T11:32:54.053Z,22.22
2018-04-19T11:35:23.210Z,22.23
2018-04-19T11:37:51.594Z,22.33
2018-04-19T11:40:20.798Z,22.30
2018-04-19T11:42:49.885Z,22.42
2018-04-19T11:45:19.002Z,22.41
2018-04-19T11:47:47.316Z,22.41
2018-04-19T11:50:16.438Z,22.43
2018-04-19T11:52:44.789Z,22.46
2018-04-19T11:55:13.166Z,22.51
2018-04-19T11:57:41.553Z,22.57
2018-04-19T12:00:09.873Z,22.62
2018-04-19T12:02:38.989Z,22.61
2018-04-19T12:05:07.303Z,22.66
2018-04-19T12:07:35.676Z,22.66
2018-04-19T12:10:04.010Z,22.65
2018-04-19T12:12:33.120Z,22.61
2018-04-19T12:15:01.484Z,22.71
2018-04-19T12:17:30.211Z,22.68
2018-04-19T12:19:59.707Z,22.81
2018-04-19T12:22:28.432Z,22.96
2018-04-19T12:24:57.148Z,22.90
2018-04-19T12:27:26.269Z,22.92
2018-04-19T12:29:55.743Z,22.96
2018-04-19T12:32:24.912Z,22.99
2018-04-19T12:34:53.295Z,23.04
2018-04-19T12:37:21.630Z,23.09
2018-04-19T12:39:50.796Z,23.07
2018-04-19T12:42:19.930Z,23.04
2018-04-19T12:44:48.300Z,23.07
2018-04-19T12:47:16.675Z,23.07
2018-04-19T12:49:45.031Z,23.16
2018-04-19T12:52:13.383Z,23.25
2018-04-19T12:54:42.503Z,23.24
2018-04-19T12:57:10.850Z,23.25
2018-04-19T12:59:39.224Z,23.20
2018-04-19T13:02:07.556Z,23.18
2018-04-19T13:04:35.920Z,23.18
2018-04-19T13:07:04.247Z,23.26
2018-04-19T13:09:32.628Z,23.36
2018-04-19T13:12:01.002Z,23.53
2018-04-19T13:14:29.356Z,23.46
2018-04-19T13:16:57.732Z,23.51
2018-04-19T13:19:26.103Z,23.49
2018-04-19T13:21:55.290Z,23.59
2018-04-19T13:24:23.631Z,23.62
2018-04-19T13:26:51.988Z,23.54
2018-04-19T13:29:20.335Z,23.48
2018-04-19T13:31:48.710Z,23.44
2018-04-19T13:34:17.103Z,23.51
2018-04-19T13:36:45.443Z,23.61
2018-04-19T13:39:13.792Z,23.56
2018-04-19T13:41:42.155Z,23.47
2018-04-19T13:44:10.904Z,23.49
2018-04-19T13:46:39.637Z,23.52
2018-04-19T13:49:08.015Z,23.60
2018-04-19T13:51:36.334Z,23.65
2018-04-19T13:54:04.664Z,23.77
2018-04-19T13:56:33.079Z,23.86
2018-04-19T13:59:02.169Z,23.86
2018-04-19T14:01:30.566Z,23.88
2018-04-19T14:03:58.901Z,23.95
2018-04-19T14:06:28.000Z,24.00
2018-04-19T14:08:56.338Z,24.05
2018-04-19T14:11:24.821Z,23.97
2018-04-19T14:13:53.304Z,23.87
2018-04-19T14:16:23.911Z,23.86
2018-04-19T14:18:52.383Z,23.91
2018-04-19T14:21:20.747Z,23.98
2018-04-19T14:23:49.849Z,24.04
2018-04-19T14:26:18.228Z,24.01
2018-04-19T14:28:46.552Z,24.12
2018-04-19T14:31:15.521Z,24.19
2018-04-19T14:33:43.972Z,24.11
2018-04-19T14:36:13.160Z,24.12
2018-04-19T14:38:42.931Z,24.11
2018-04-19T14:41:11.307Z,24.08
2018-04-19T14:43:39.695Z,24.07
2018-04-19T14:46:10.215Z,24.08
2018-04-19T14:48:38.591Z,24.08
2018-04-19T14:51:07.011Z,24.03
2018-04-19T14:53:36.130Z,24.04
2018-04-19T14:56:04.447Z,24.08
2018-04-19T14:58:33.746Z,24.09
2018-04-19T15:01:02.319Z,24.10
2018-04-19T15:03:30.664Z,24.14
2018-04-19T15:05:59.090Z,24.20
2018-04-19T15:08:27.409Z,24.25
2018-04-19T15:10:56.666Z,24.33
2018-04-19T15:13:25.058Z,24.26
2018-04-19T15:15:54.414Z,24.27
2018-04-19T15:18:22.818Z,24.25
2018-04-19T15:20:51.330Z,24.19
2018-04-19T15:23:19.987Z,24.21
2018-04-19T15:25:49.838Z,24.24
2018-04-19T15:28:18.972Z,24.25
2018-04-19T15:30:47.853Z,24.24
2018-04-19T15:33:16.288Z,24.22
2018-04-19T15:35:44.624Z,24.13
2018-04-19T15:38:13.175Z,24.07
2018-04-19T15:40:41.596Z,24.09
2018-04-19T15:43:09.914Z,24.21
2018-04-19T15:45:38.245Z,24.24
2018-04-19T15:48:06.649Z,24.25
2018-04-19T15:50:35.030Z,24.18
2018-04-19T15:53:04.162Z,24.26
2018-04-19T15:55:32.494Z,24.25
2018-04-19T15:58:01.277Z,24.20
2018-04-19T16:00:29.572Z,24.20
2018-04-19T16:02:58.063Z,24.24
2018-04-19T16:05:26.767Z,24.27
2018-04-19T16:07:55.359Z,24.16
2018-04-19T16:10:23.711Z,24.07
2018-04-19T16:12:52.371Z,23.98
2018-04-19T16:15:20.695Z,24.04
2018-04-19T16:17:49.087Z,24.13
2018-04-19T16:22:55.867Z,23.96
2018-04-19T16:25:24.478Z,23.91
2018-04-19T16:27:52.833Z,23.94
2018-04-19T16:30:21.277Z,23.90
2018-04-19T16:32:49.604Z,23.83
2018-04-19T16:35:18.351Z,23.77
2018-04-19T16:37:47.850Z,23.77
2018-04-19T16:40:16.187Z,23.62
2018-04-19T16:42:44.530Z,23.77
2018-04-19T16:45:14.035Z,23.73
2018-04-19T16:47:42.451Z,23.70
2018-04-19T16:50:10.951Z,23.63
2018-04-19T16:52:55.654Z,23.60
2018-04-19T16:55:24.040Z,23.47
2018-04-19T16:57:52.383Z,23.52
2018-04-19T17:00:22.238Z,23.60
2018-04-19T17:02:51.720Z,23.62
2018-04-19T17:05:20.121Z,23.57
2018-04-19T17:07:49.218Z,23.52
2018-04-19T17:10:17.562Z,23.46
2018-04-19T17:12:47.090Z,23.42
2018-04-19T17:15:15.441Z,23.25
2018-04-19T17:17:44.571Z,23.04
2018-04-19T17:20:12.944Z,23.04
2018-04-19T17:22:41.397Z,22.95
2018-04-19T17:25:10.687Z,22.90
2018-04-19T17:27:39.026Z,22.75
2018-04-19T17:30:07.387Z,22.62
2018-04-19T17:32:35.741Z,22.51
2018-04-19T17:35:04.874Z,22.36
2018-04-19T17:37:33.200Z,22.12
2018-04-19T17:40:03.486Z,21.98
2018-04-19T17:42:31.982Z,21.86
2018-04-19T17:45:00.354Z,21.70
2018-04-19T17:47:29.123Z,21.60
2018-04-19T17:49:58.796Z,21.68
2018-04-19T17:52:27.208Z,21.45
2018-04-19T17:54:55.581Z,21.43
2018-04-19T17:57:24.079Z,21.37
2018-04-19T17:59:53.258Z,21.32
2018-04-19T18:02:22.234Z,21.19
2018-04-19T18:04:51.555Z,21.12
2018-04-19T18:07:19.913Z,20.95
2018-04-19T18:09:48.279Z,20.79
2018-04-19T18:12:17.448Z,20.74
2018-04-19T18:14:46.173Z,20.56
2018-04-19T18:17:14.527Z,20.61
2018-04-19T18:19:43.678Z,20.66
2018-04-19T18:22:12.773Z,20.63
2018-04-19T18:24:41.138Z,20.49
2018-04-19T18:27:09.486Z,20.40
2018-04-19T18:29:38.619Z,20.32
2018-04-19T18:32:07.746Z,20.27
2018-04-19T18:34:36.921Z,20.25
2018-04-19T18:37:05.912Z,20.24
2018-04-19T18:39:34.279Z,20.22
2018-04-19T18:42:03.399Z,20.12
2018-04-19T18:44:31.792Z,20.13
2018-04-19T18:47:00.585Z,20.00
2018-04-19T18:49:28.979Z,19.99
2018-04-19T18:51:58.059Z,19.96
2018-04-19T18:54:26.433Z,19.86
2018-04-19T18:56:55.253Z,19.81
2018-04-19T18:59:24.054Z,19.67
2018-04-19T19:01:52.461Z,19.63
2018-04-19T19:04:20.833Z,19.75
2018-04-19T19:06:49.336Z,19.69
2018-04-19T19:09:18.141Z,19.61
2018-04-19T19:11:47.134Z,19.47
2018-04-19T19:14:16.282Z,19.55
2018-04-19T19:16:44.731Z,19.49
2018-04-19T19:19:30.622Z,19.40
2018-04-19T19:21:59.010Z,19.34
2018-04-19T19:24:27.368Z,19.33
2018-04-19T19:26:56.917Z,19.37
2018-04-19T19:29:26.130Z,19.31
2018-04-19T19:31:54.868Z,19.31
2018-04-19T19:34:24.007Z,19.14
2018-04-19T19:36:52.465Z,19.13
2018-04-19T19:39:22.421Z,19.05
2018-04-19T19:41:50.783Z,19.06
2018-04-19T19:44:19.220Z,18.99
2018-04-19T19:46:48.010Z,18.89
2018-04-19T19:49:17.237Z,18.91
2018-04-19T19:51:45.795Z,18.76
2018-04-19T19:54:14.186Z,18.68
2018-04-19T19:56:43.427Z,18.60
2018-04-19T19:59:11.758Z,18.54
2018-04-19T20:01:41.652Z,18.54
2018-04-19T20:04:10.720Z,18.49
2018-04-19T20:06:40.612Z,18.47
2018-04-19T20:09:08.933Z,18.38
2018-04-19T20:11:38.027Z,18.25
2018-04-19T20:14:07.157Z,18.10
2018-04-19T20:16:36.325Z,17.93
2018-04-19T20:19:04.672Z,17.74
2018-04-19T20:21:33.041Z,17.66
2018-04-19T20:24:02.858Z,17.60
2018-04-19T20:26:31.216Z,17.40
2018-04-19T20:28:59.956Z,17.14
2018-04-19T20:31:29.084Z,17.00
2018-04-19T20:33:57.442Z,16.90
2018-04-19T20:36:26.165Z,16.79
2018-04-19T20:38:55.339Z,16.64
2018-04-19T20:41:23.688Z,16.60
2018-04-19T20:43:52.812Z,16.54
2018-04-19T20:46:21.979Z,16.47
2018-04-19T20:48:51.119Z,16.38
2018-04-19T20:51:19.493Z,16.23
2018-04-19T20:53:47.830Z,16.09
2018-04-19T20:56:16.603Z,16.02
2018-04-19T20:58:44.930Z,15.93
2018-04-19T21:01:13.318Z,15.83
2018-04-19T21:03:41.703Z,15.76
2018-04-19T21:06:10.032Z,15.75
2018-04-19T21:08:38.390Z,15.73
2018-04-19T21:11:07.877Z,15.66
2018-04-19T21:13:36.246Z,15.64
2018-04-19T21:16:04.697Z,15.56
2018-04-19T21:18:33.032Z,15.48
2018-04-19T21:21:02.173Z,15.39
2018-04-19T21:23:30.881Z,15.48
2018-04-19T21:26:00.007Z,15.42
2018-04-19T21:28:29.103Z,15.31
2018-04-19T21:30:58.258Z,15.26
2018-04-19T21:33:26.601Z,15.23
2018-04-19T21:35:55.028Z,15.12
2018-04-19T21:38:23.365Z,15.14
2018-04-19T21:40:51.714Z,15.11
2018-04-19T21:43:20.502Z,15.20
2018-04-19T21:45:49.666Z,15.25
2018-04-19T21:48:18.017Z,15.28
2018-04-19T21:50:46.402Z,15.47
2018-04-19T21:53:15.555Z,15.73
2018-04-19T21:55:44.670Z,15.67
2018-04-19T21:58:13.442Z,15.66
2018-04-19T22:00:41.802Z,15.57
2018-04-19T22:03:10.185Z,15.71
2018-04-19T22:05:38.606Z,15.73
2018-04-19T22:08:06.950Z,15.68
2018-04-19T22:10:36.065Z,15.71
2018-04-19T22:13:04.453Z,15.69
2018-04-19T22:15:32.793Z,15.85
2018-04-19T22:18:01.181Z,15.93
2018-04-19T22:20:30.281Z,15.90
2018-04-19T22:22:59.433Z,15.87
2018-04-19T22:25:27.816Z,15.85
2018-04-19T22:27:56.153Z,15.97
2018-04-19T22:30:24.534Z,15.88
2018-04-19T22:32:53.661Z,15.80
2018-04-19T22:35:22.017Z,15.57
2018-04-19T22:37:50.417Z,15.45
2018-04-19T22:40:18.797Z,15.41
2018-04-19T22:42:47.145Z,15.26
2018-04-19T22:45:15.492Z,15.14
2018-04-19T22:47:44.629Z,15.07
2018-04-19T22:50:13.773Z,15.20
2018-04-19T22:52:42.562Z,15.30
2018-04-19T22:55:10.901Z,15.28
2018-04-19T22:57:39.250Z,15.19
2018-04-19T23:00:07.653Z,15.08
2018-04-19T23:02:35.995Z,15.02
2018-04-19T23:05:05.110Z,15.03
2018-04-19T23:07:33.497Z,15.20
2018-04-19T23:10:02.253Z,15.45
2018-04-19T23:12:31.409Z,15.22
2018-04-19T23:14:59.803Z,14.98
2018-04-19T23:17:28.149Z,14.84
2018-04-19T23:19:56.545Z,14.87
2018-04-19T23:22:35.560Z,14.91
2018-04-19T23:25:03.957Z,14.93
2018-04-19T23:27:32.350Z,14.89
2018-04-19T23:30:00.713Z,15.01
2018-04-19T23:32:29.060Z,14.91
2018-04-19T23:34:57.404Z,14.84
2018-04-19T23:37:25.917Z,14.76
2018-04-19T23:39:55.009Z,14.67
2018-04-19T23:42:23.750Z,14.59
2018-04-19T23:44:52.935Z,14.65
2018-04-19T23:47:21.268Z,14.66
2018-04-19T23:49:49.616Z,14.79
2018-04-19T23:52:18.773Z,14.80
2018-04-19T23:54:47.125Z,14.62
2018-04-19T23:57:15.566Z,14.78
2018-04-19T23:59:44.695Z,14.78
